createdAt,value
2022-10-10T00:02:58.497Z,3.15
2022-10-10T00:07:00.571Z,2.75
2022-10-10T00:11:02.682Z,4.22
2022-10-10T00:15:05.594Z,3.10
2022-10-10T00:19:07.709Z,2.78
2022-10-10T00:23:09.757Z,3.58
2022-10-10T00:27:11.769Z,5.13
2022-10-10T00:31:14.180Z,2.90
2022-10-10T00:35:16.231Z,4.28
2022-10-10T00:39:18.250Z,3.80
2022-10-10T00:43:21.788Z,4.57
2022-10-10T00:47:23.866Z,2.92
2022-10-10T00:51:26.069Z,2.30
2022-10-10T00:55:28.227Z,2.65
2022-10-10T00:59:36.494Z,2.97
2022-10-10T01:03:38.530Z,2.30
2022-10-10T01:07:41.551Z,3.90
2022-10-10T01:12:00.595Z,2.72
2022-10-10T01:16:25.829Z,3.75
2022-10-10T01:20:45.428Z,4.45
2022-10-10T01:25:02.650Z,4.97
2022-10-10T01:29:17.604Z,4.07
2022-10-10T01:33:32.024Z,3.63
2022-10-10T01:37:45.161Z,5.95
2022-10-10T01:42:03.206Z,4.18
2022-10-10T01:46:13.561Z,4.53
2022-10-10T01:50:19.669Z,4.05
2022-10-10T01:54:47.584Z,3.60
2022-10-10T02:03:21.976Z,3.75
2022-10-10T02:07:31.303Z,3.25
2022-10-10T02:11:38.143Z,3.55
2022-10-10T02:15:50.072Z,4.60
2022-10-10T02:19:56.697Z,3.25
2022-10-10T02:24:03.749Z,6.18
2022-10-10T02:28:25.699Z,2.88
2022-10-10T02:32:42.886Z,3.15
2022-10-10T02:36:49.448Z,3.83
2022-10-10T02:40:51.900Z,4.03
2022-10-10T02:44:55.057Z,3.88
2022-10-10T02:48:58.811Z,4.82
2022-10-10T02:53:00.804Z,3.47
2022-10-10T02:57:02.778Z,3.80
2022-10-10T03:01:04.903Z,2.83
2022-10-10T03:05:07.503Z,4.85
2022-10-10T03:09:09.497Z,2.80
2022-10-10T03:13:11.467Z,2.97
2022-10-10T03:17:13.442Z,3.10
2022-10-10T03:21:15.838Z,3.80
2022-10-10T03:25:17.877Z,4.28
2022-10-10T03:29:19.992Z,3.25
2022-10-10T03:33:22.533Z,3.90
2022-10-10T03:37:24.533Z,5.45
2022-10-10T03:41:26.545Z,3.05
2022-10-10T03:45:28.552Z,4.75
2022-10-10T03:49:30.673Z,3.80
2022-10-10T03:53:32.778Z,3.85
2022-10-10T03:57:34.977Z,2.53
2022-10-10T04:01:37.338Z,4.50
2022-10-10T04:05:39.733Z,4.85
2022-10-10T04:09:41.704Z,4.13
2022-10-10T04:13:43.684Z,5.75
2022-10-10T04:17:45.656Z,5.00
2022-10-10T04:21:47.642Z,2.95
2022-10-10T04:25:53.359Z,4.95
2022-10-10T04:29:55.348Z,4.80
2022-10-10T04:33:57.337Z,3.45
2022-10-10T04:37:59.336Z,5.40
2022-10-10T04:42:01.399Z,4.75
2022-10-10T04:46:03.551Z,4.07
2022-10-10T04:50:06.015Z,4.07
2022-10-10T04:54:08.057Z,5.47
2022-10-10T04:58:10.026Z,4.20
2022-10-10T05:02:12.103Z,4.00
2022-10-10T05:06:14.096Z,4.00
2022-10-10T05:10:16.362Z,7.10
2022-10-10T05:14:18.375Z,3.13
2022-10-10T05:18:21.438Z,4.05
2022-10-10T05:22:23.422Z,4.90
2022-10-10T05:26:25.483Z,4.15
2022-10-10T05:30:27.483Z,4.38
2022-10-10T05:34:29.569Z,5.82
2022-10-10T05:38:31.627Z,5.28
2022-10-10T05:42:33.624Z,7.30
2022-10-10T05:46:35.663Z,6.50
2022-10-10T05:50:40.631Z,7.05
2022-10-10T05:54:42.640Z,5.72
2022-10-10T05:58:45.244Z,5.93
2022-10-10T06:02:47.332Z,9.00
2022-10-10T06:06:50.342Z,16.33
2022-10-10T06:10:52.899Z,18.27
2022-10-10T06:14:54.930Z,16.40
2022-10-10T06:18:57.136Z,7.50
2022-10-10T06:22:59.143Z,12.70
2022-10-10T06:27:01.141Z,21.67
2022-10-10T06:31:06.513Z,17.35
2022-10-10T06:35:08.621Z,9.13
2022-10-10T06:39:10.669Z,4.38
2022-10-10T06:43:14.444Z,4.53
2022-10-10T06:47:16.918Z,8.38
2022-10-10T06:51:19.020Z,7.75
2022-10-10T06:55:21.000Z,7.43
2022-10-10T06:59:22.998Z,9.95
2022-10-10T07:03:25.880Z,19.88
2022-10-10T07:07:27.902Z,14.63
2022-10-10T07:11:30.096Z,16.95
2022-10-10T07:15:32.110Z,11.88
2022-10-10T07:19:37.223Z,12.30
2022-10-10T07:23:39.450Z,10.27
2022-10-10T07:27:41.546Z,17.38
2022-10-10T07:31:43.555Z,16.40
2022-10-10T07:35:54.040Z,14.93
2022-10-10T07:39:56.081Z,9.20
2022-10-10T07:43:58.125Z,8.20
2022-10-10T07:48:00.200Z,8.80
2022-10-10T07:52:02.523Z,10.48
2022-10-10T07:56:06.269Z,9.02
2022-10-10T08:00:10.012Z,9.77
2022-10-10T08:04:14.888Z,8.05
2022-10-10T08:08:16.891Z,8.15
2022-10-10T08:12:18.920Z,6.55
2022-10-10T08:16:21.062Z,6.00
2022-10-10T08:20:23.098Z,8.93
2022-10-10T08:24:25.206Z,6.60
2022-10-10T08:28:28.282Z,5.43
2022-10-10T08:32:30.427Z,6.78
2022-10-10T08:36:32.430Z,5.78
2022-10-10T08:40:42.360Z,5.15
2022-10-10T08:44:53.005Z,5.00
2022-10-10T08:48:58.440Z,5.45
2022-10-10T08:53:11.654Z,3.65
2022-10-10T08:57:26.030Z,5.38
2022-10-10T09:01:34.732Z,6.90
2022-10-10T09:05:36.681Z,8.50
2022-10-10T09:10:12.451Z,4.75
2022-10-10T09:14:44.709Z,6.13
2022-10-10T09:19:12.500Z,5.63
2022-10-10T09:23:19.734Z,6.90
2022-10-10T09:27:26.994Z,5.00
2022-10-10T09:35:39.028Z,7.35
2022-10-10T09:39:48.698Z,6.70
2022-10-10T09:43:59.124Z,8.23
2022-10-10T09:48:01.107Z,6.30
2022-10-10T09:52:20.877Z,6.10
2022-10-10T09:56:27.319Z,9.35
2022-10-10T10:00:35.199Z,5.83
2022-10-10T10:04:37.232Z,6.72
2022-10-10T10:08:39.648Z,5.45
2022-10-10T10:12:44.122Z,8.05
2022-10-10T10:16:46.123Z,6.75
2022-10-10T10:20:51.363Z,5.05
2022-10-10T10:24:53.765Z,6.38
2022-10-10T10:29:00.317Z,6.90
2022-10-10T10:33:15.766Z,5.75
2022-10-10T10:37:23.896Z,7.93
2022-10-10T10:41:38.265Z,6.78
2022-10-10T10:46:07.136Z,5.82
2022-10-10T10:50:27.849Z,7.25
2022-10-10T10:54:40.128Z,5.47
2022-10-10T10:59:36.260Z,5.47
2022-10-10T11:05:16.047Z,5.60
2022-10-10T11:08:03.165Z,8.50
2022-10-10T11:12:27.039Z,5.82
2022-10-10T11:16:53.669Z,8.40
2022-10-10T11:21:05.376Z,5.63
2022-10-10T11:25:16.987Z,8.48
2022-10-10T11:29:27.771Z,7.88
2022-10-10T11:33:42.812Z,6.05
2022-10-10T11:37:53.174Z,8.20
2022-10-10T11:42:00.297Z,4.93
2022-10-10T11:46:33.920Z,4.20
2022-10-10T11:50:40.298Z,7.55
2022-10-10T11:55:14.011Z,5.23
2022-10-10T11:59:34.031Z,6.80
2022-10-10T12:03:36.020Z,6.35
2022-10-10T12:07:49.103Z,7.75
2022-10-10T12:12:02.633Z,6.28
2022-10-10T12:16:10.522Z,6.22
2022-10-10T12:20:15.587Z,11.70
2022-10-10T12:24:17.624Z,5.65
2022-10-10T12:28:56.318Z,8.27
2022-10-10T12:32:58.864Z,7.63
2022-10-10T12:37:21.653Z,4.20
2022-10-10T12:41:52.695Z,5.32
2022-10-10T12:46:09.603Z,5.82
2022-10-10T12:50:41.575Z,6.63
2022-10-10T12:54:45.634Z,7.45
2022-10-10T12:58:49.517Z,9.88
2022-10-10T13:02:57.716Z,7.35
2022-10-10T13:07:02.480Z,9.02
2022-10-10T13:11:13.343Z,7.65
2022-10-10T13:15:20.256Z,7.93
2022-10-10T13:19:24.354Z,7.32
2022-10-10T13:23:26.662Z,6.80
2022-10-10T13:27:32.281Z,6.20
2022-10-10T13:31:34.355Z,6.20
2022-10-10T13:35:38.157Z,6.28
2022-10-10T13:39:40.615Z,8.82
2022-10-10T13:43:42.697Z,5.13
2022-10-10T13:47:56.771Z,8.80
2022-10-10T13:52:20.221Z,8.55
2022-10-10T13:56:30.959Z,9.25
2022-10-10T14:00:33.058Z,7.05
2022-10-10T14:04:44.153Z,9.65
2022-10-10T14:08:48.183Z,6.70
2022-10-10T14:12:56.608Z,9.48
2022-10-10T14:17:00.991Z,7.32
2022-10-10T14:21:03.339Z,8.57
2022-10-10T14:25:05.941Z,7.90
2022-10-10T14:29:13.463Z,6.13
2022-10-10T14:33:17.632Z,5.45
2022-10-10T14:37:25.184Z,9.07
2022-10-10T14:41:27.298Z,6.57
2022-10-10T14:45:29.374Z,5.00
2022-10-10T14:49:31.357Z,7.47
2022-10-10T14:53:33.349Z,8.57
2022-10-10T14:57:35.330Z,9.38
2022-10-10T15:01:37.319Z,6.20
2022-10-10T15:05:40.316Z,5.93
2022-10-10T15:10:10.870Z,8.85
2022-10-10T15:14:06.843Z,3.63
2022-10-10T15:18:25.704Z,5.93
2022-10-10T15:22:31.687Z,6.80
2022-10-10T15:26:33.745Z,6.93
2022-10-10T15:30:39.484Z,7.43
2022-10-10T15:34:44.242Z,7.60
2022-10-10T15:38:46.332Z,8.10
2022-10-10T15:42:49.968Z,7.47
2022-10-10T15:46:53.127Z,6.75
2022-10-10T15:50:55.168Z,9.32
2022-10-10T15:54:57.183Z,4.85
2022-10-10T15:59:01.381Z,8.82
2022-10-10T16:03:03.483Z,8.57
2022-10-10T16:07:24.606Z,8.80
2022-10-10T16:11:28.343Z,11.20
2022-10-10T16:15:30.579Z,10.10
2022-10-10T16:19:32.609Z,7.90
2022-10-10T16:23:34.683Z,6.13
2022-10-10T16:27:38.465Z,9.15
2022-10-10T16:31:40.995Z,8.35
2022-10-10T16:35:43.097Z,9.07
2022-10-10T16:39:45.100Z,9.50
2022-10-10T16:43:48.044Z,10.25
2022-10-10T16:47:50.022Z,8.07
2022-10-10T16:51:52.031Z,7.20
2022-10-10T16:55:59.225Z,12.40
2022-10-10T17:04:03.574Z,6.82
2022-10-10T17:08:05.610Z,10.90
2022-10-10T17:12:07.592Z,7.95
2022-10-10T17:20:43.323Z,13.10
2022-10-10T17:24:45.335Z,14.57
2022-10-10T17:28:47.416Z,12.10
2022-10-10T17:32:50.125Z,13.93
2022-10-10T17:36:52.853Z,12.65
2022-10-10T17:41:00.019Z,16.98
2022-10-10T17:49:06.029Z,15.27
2022-10-10T17:53:08.031Z,14.45
2022-10-10T17:57:10.284Z,11.10
2022-10-10T18:01:14.547Z,10.52
2022-10-10T18:05:16.807Z,11.35
2022-10-10T18:09:18.851Z,10.75
2022-10-10T18:13:20.898Z,11.05
2022-10-10T18:17:23.104Z,13.10
2022-10-10T18:21:25.172Z,7.53
2022-10-10T18:25:27.426Z,8.95
2022-10-10T18:29:29.498Z,8.43
2022-10-10T18:33:31.501Z,10.38
2022-10-10T18:37:35.422Z,13.73
2022-10-10T18:41:37.525Z,12.07
2022-10-10T18:45:39.619Z,9.55
2022-10-10T18:49:41.761Z,9.27
2022-10-10T18:53:45.256Z,8.38
2022-10-10T18:57:47.295Z,10.00
2022-10-10T19:01:52.515Z,10.45
2022-10-10T19:05:55.440Z,11.32
2022-10-10T19:09:57.429Z,14.85
2022-10-10T19:14:01.156Z,14.23
2022-10-10T19:18:03.325Z,14.40
2022-10-10T19:22:05.367Z,12.13
2022-10-10T19:26:10.498Z,16.08
2022-10-10T19:30:13.352Z,15.20
2022-10-10T19:34:15.419Z,12.95
2022-10-10T19:38:17.399Z,13.65
2022-10-10T19:42:19.418Z,11.90
2022-10-10T19:46:22.636Z,11.90
2022-10-10T19:50:24.656Z,13.85
2022-10-10T19:54:26.684Z,9.35
2022-10-10T19:58:29.388Z,11.77
2022-10-10T20:02:32.174Z,12.77
2022-10-10T20:06:34.209Z,11.23
2022-10-10T20:10:39.672Z,12.38
2022-10-10T20:14:41.688Z,11.90
2022-10-10T20:18:43.835Z,11.82
2022-10-10T20:22:45.906Z,12.65
2022-10-10T20:26:47.961Z,11.20
2022-10-10T20:30:51.396Z,11.00
2022-10-10T20:34:53.382Z,9.05
2022-10-10T20:39:04.881Z,11.25
2022-10-10T20:43:07.178Z,11.65
2022-10-10T20:47:09.157Z,14.20
2022-10-10T20:51:12.968Z,11.95
2022-10-10T20:55:14.962Z,12.35
2022-10-10T20:59:18.294Z,10.65
2022-10-10T21:03:20.301Z,10.27
2022-10-10T21:07:22.433Z,12.63
2022-10-10T21:11:24.520Z,13.23
2022-10-10T21:15:26.584Z,13.02
2022-10-10T21:19:28.578Z,11.38
2022-10-10T21:23:35.149Z,12.38
2022-10-10T21:27:37.181Z,11.07
2022-10-10T21:31:40.671Z,11.25
2022-10-10T21:35:42.747Z,12.57
2022-10-10T21:39:44.937Z,9.73
2022-10-10T21:43:57.507Z,37.17
2022-10-10T21:47:59.538Z,19.35
2022-10-10T21:52:01.590Z,9.98
2022-10-10T21:56:08.957Z,14.45
2022-10-10T22:00:12.074Z,13.73
2022-10-10T22:04:14.118Z,15.32
2022-10-10T22:08:16.146Z,10.30
2022-10-10T22:12:18.205Z,11.00
2022-10-10T22:16:20.691Z,12.98
2022-10-10T22:20:22.924Z,11.95
2022-10-10T22:24:25.103Z,15.38
2022-10-10T22:28:27.263Z,13.73
2022-10-10T22:32:29.731Z,11.10
2022-10-10T22:36:31.798Z,11.77
2022-10-10T22:40:34.284Z,14.25
2022-10-10T22:44:36.355Z,14.10
2022-10-10T22:48:38.446Z,13.95
2022-10-10T22:52:41.220Z,18.75
2022-10-10T22:56:43.381Z,11.90
2022-10-10T23:00:45.466Z,8.60
2022-10-10T23:04:47.570Z,12.05
2022-10-10T23:08:49.616Z,11.80
2022-10-10T23:12:51.710Z,9.75
2022-10-10T23:16:53.735Z,11.20
2022-10-10T23:20:56.108Z,9.57
2022-10-10T23:24:58.194Z,12.52
2022-10-10T23:29:00.266Z,11.10
2022-10-10T23:33:02.321Z,12.20
2022-10-10T23:37:04.314Z,13.88
2022-10-10T23:41:07.272Z,11.38
2022-10-10T23:45:09.793Z,14.27
2022-10-10T23:49:11.795Z,11.25
2022-10-10T23:53:14.048Z,13.65
2022-10-10T23:57:16.043Z,13.05
